createdAt,value
2023-03-29T00:01:13.078Z,3.08
2023-03-29T00:11:35.599Z,2.35
2023-03-29T00:21:37.908Z,2.88
2023-03-29T00:31:40.311Z,9.10
2023-03-29T05:05:09.151Z,26.48
2023-03-29T05:15:11.840Z,25.98
2023-03-29T05:25:14.381Z,24.73
2023-03-29T05:35:16.882Z,29.17
2023-03-29T05:45:20.567Z,26.48
2023-03-29T05:55:23.960Z,38.08
2023-03-29T06:05:26.786Z,39.85
2023-03-29T06:15:30.438Z,31.98
2023-03-29T06:25:33.204Z,31.88
2023-03-29T06:35:37.248Z,43.67
2023-03-29T06:45:40.399Z,26.98
2023-03-29T06:55:42.984Z,30.40
2023-03-29T07:05:45.508Z,27.67
2023-03-29T07:15:47.912Z,26.63
2023-03-29T07:25:51.480Z,22.50
2023-03-29T07:35:53.872Z,22.25
2023-03-29T07:45:59.054Z,16.67
2023-03-29T07:56:01.979Z,10.50
2023-03-29T08:06:05.049Z,4.22
2023-03-29T08:16:09.125Z,2.42
2023-03-29T08:26:11.675Z,2.65
2023-03-29T08:36:14.104Z,3.50
2023-03-29T08:46:34.585Z,2.85
2023-03-29T08:56:40.895Z,2.90
2023-03-29T09:06:43.385Z,3.92
2023-03-29T09:16:59.866Z,3.55
2023-03-29T09:27:14.707Z,2.80
2023-03-29T09:37:32.274Z,2.70
2023-03-29T09:47:48.025Z,2.25
2023-03-29T09:57:50.580Z,2.33
2023-03-29T10:07:57.860Z,5.97
2023-03-29T10:18:06.027Z,2.63
2023-03-29T10:28:13.742Z,2.53
2023-03-29T10:38:19.461Z,4.53
2023-03-29T10:48:30.125Z,3.38
2023-03-29T10:59:01.604Z,2.38
2023-03-29T11:09:42.553Z,2.20
2023-03-29T11:20:23.498Z,1.77
2023-03-29T11:30:35.474Z,3.90
2023-03-29T11:40:46.854Z,1.80
2023-03-29T11:50:59.007Z,1.75
2023-03-29T12:01:09.518Z,1.77
2023-03-29T12:11:18.805Z,1.98
2023-03-29T12:21:23.376Z,3.13
2023-03-29T12:31:37.746Z,1.58
2023-03-29T12:41:41.895Z,2.42
2023-03-29T12:51:44.345Z,1.30
2023-03-29T13:02:22.324Z,1.48
2023-03-29T13:12:36.086Z,1.85
2023-03-29T13:22:52.506Z,2.53
2023-03-29T13:33:24.463Z,5.85
2023-03-29T13:43:46.158Z,2.85
2023-03-29T13:54:03.915Z,5.00
2023-03-29T14:04:12.733Z,1.90
2023-03-29T14:14:15.464Z,1.67
2023-03-29T14:24:28.192Z,23.50
2023-03-29T14:34:30.777Z,12.77
2023-03-29T14:44:34.970Z,5.30
2023-03-29T14:54:38.259Z,21.88
2023-03-29T15:04:41.732Z,9.50
2023-03-29T15:14:44.198Z,28.23
2023-03-29T15:24:49.051Z,31.60
2023-03-29T15:35:08.129Z,12.95
2023-03-29T15:45:18.902Z,10.50
2023-03-29T15:55:21.271Z,5.00
2023-03-29T16:05:23.856Z,13.80
2023-03-29T16:15:27.456Z,4.35
2023-03-29T16:25:30.082Z,5.97
2023-03-29T16:35:34.559Z,7.68
2023-03-29T16:45:37.374Z,22.35
2023-03-29T16:55:40.615Z,5.80
2023-03-29T17:05:51.057Z,6.45
2023-03-29T17:15:55.043Z,4.93
2023-03-29T17:25:57.821Z,4.82
2023-03-29T17:36:00.636Z,6.55
2023-03-29T17:46:03.589Z,8.57
2023-03-29T17:56:07.363Z,5.10
2023-03-29T18:06:09.765Z,5.28
2023-03-29T18:16:12.407Z,6.35
2023-03-29T18:26:16.197Z,6.07
2023-03-29T18:36:18.638Z,8.27
2023-03-29T18:46:21.895Z,8.82
2023-03-29T18:56:24.891Z,9.40
2023-03-29T19:06:27.787Z,7.22
2023-03-29T19:16:30.571Z,4.80
2023-03-29T19:26:33.686Z,4.93
2023-03-29T19:36:36.612Z,7.40
2023-03-29T19:46:39.169Z,5.70
2023-03-29T19:56:43.134Z,6.00
2023-03-29T20:06:46.626Z,5.70
2023-03-29T20:16:51.146Z,4.35
2023-03-29T20:26:54.173Z,5.47
2023-03-29T20:40:13.737Z,6.53
2023-03-29T20:50:19.173Z,5.47
2023-03-29T21:00:22.681Z,5.43
2023-03-29T21:10:26.670Z,4.22
2023-03-29T21:20:29.095Z,5.57
2023-03-29T21:30:32.453Z,5.28
2023-03-29T21:40:36.415Z,5.10
2023-03-29T21:50:39.128Z,5.82
2023-03-29T22:00:42.373Z,5.57
2023-03-29T22:10:45.088Z,4.20
2023-03-29T22:20:48.874Z,5.57
2023-03-29T22:30:51.962Z,5.63
2023-03-29T22:40:55.774Z,4.82
2023-03-29T22:50:58.752Z,4.60
2023-03-29T23:01:02.201Z,4.80
2023-03-29T23:11:05.511Z,4.40
2023-03-29T23:21:09.762Z,4.55
2023-03-29T23:31:18.613Z,4.95
2023-03-29T23:41:21.276Z,4.78
2023-03-29T23:51:28.608Z,4.07
